sensor_id;sensor_type;location;lat;lon;timestamp;temperature;humidity
20750;DHT22;10535;50.664;4.564;2022-09-13T00:02:01;17.30;99.90
20750;DHT22;10535;50.664;4.564;2022-09-13T00:04:27;17.20;99.90
20750;DHT22;10535;50.664;4.564;2022-09-13T00:06:53;17.20;99.90
20750;DHT22;10535;50.664;4.564;2022-09-13T00:09:18;17.10;99.90
20750;DHT22;10535;50.664;4.564;2022-09-13T00:11:44;17.10;99.90
20750;DHT22;10535;50.664;4.564;2022-09-13T00:14:09;17.00;99.90
20750;DHT22;10535;50.664;4.564;2022-09-13T00:16:35;17.00;99.90
20750;DHT22;10535;50.664;4.564;2022-09-13T00:19:01;17.00;99.90
20750;DHT22;10535;50.664;4.564;2022-09-13T00:21:27;17.00;99.90
20750;DHT22;10535;50.664;4.564;2022-09-13T00:23:54;17.00;99.90
20750;DHT22;10535;50.664;4.564;2022-09-13T00:26:25;17.10;99.90
20750;DHT22;10535;50.664;4.564;2022-09-13T00:28:53;16.90;99.90
20750;DHT22;10535;50.664;4.564;2022-09-13T00:31:20;17.00;99.90
20750;DHT22;10535;50.664;4.564;2022-09-13T00:33:45;17.00;99.90
20750;DHT22;10535;50.664;4.564;2022-09-13T00:36:11;17.10;99.90
20750;DHT22;10535;50.664;4.564;2022-09-13T00:38:39;17.00;99.90
20750;DHT22;10535;50.664;4.564;2022-09-13T00:41:06;17.10;99.90
20750;DHT22;10535;50.664;4.564;2022-09-13T00:46:39;17.20;99.90
20750;DHT22;10535;50.664;4.564;2022-09-13T00:51:51;17.20;99.90
20750;DHT22;10535;50.664;4.564;2022-09-13T00:54:21;17.20;99.90
20750;DHT22;10535;50.664;4.564;2022-09-13T00:56:50;17.10;99.90
20750;DHT22;10535;50.664;4.564;2022-09-13T00:59:22;17.10;99.90
20750;DHT22;10535;50.664;4.564;2022-09-13T01:01:52;17.20;99.90
20750;DHT22;10535;50.664;4.564;2022-09-13T01:04:20;17.30;99.90
20750;DHT22;10535;50.664;4.564;2022-09-13T01:06:48;17.30;99.90
20750;DHT22;10535;50.664;4.564;2022-09-13T01:09:16;17.30;99.90
20750;DHT22;10535;50.664;4.564;2022-09-13T01:11:47;17.30;99.90
20750;DHT22;10535;50.664;4.564;2022-09-13T01:14:17;17.40;99.90
20750;DHT22;10535;50.664;4.564;2022-09-13T01:16:43;17.60;99.90
20750;DHT22;10535;50.664;4.564;2022-09-13T01:19:09;17.60;99.90
20750;DHT22;10535;50.664;4.564;2022-09-13T01:25:03;17.50;99.90
20750;DHT22;10535;50.664;4.564;2022-09-13T01:30:13;17.70;99.90
20750;DHT22;10535;50.664;4.564;2022-09-13T01:33:06;17.70;99.90
20750;DHT22;10535;50.664;4.564;2022-09-13T01:46:29;17.80;99.90
20750;DHT22;10535;50.664;4.564;2022-09-13T01:49:30;17.70;99.90
20750;DHT22;10535;50.664;4.564;2022-09-13T01:52:01;17.70;99.90
20750;DHT22;10535;50.664;4.564;2022-09-13T01:57:14;17.90;99.90
20750;DHT22;10535;50.664;4.564;2022-09-13T02:02:17;18.00;99.90
20750;DHT22;10535;50.664;4.564;2022-09-13T02:04:52;18.10;99.90
20750;DHT22;10535;50.664;4.564;2022-09-13T02:07:50;18.20;99.90
20750;DHT22;10535;50.664;4.564;2022-09-13T02:10:33;18.10;99.90
20750;DHT22;10535;50.664;4.564;2022-09-13T02:13:01;18.20;99.90
20750;DHT22;10535;50.664;4.564;2022-09-13T02:15:33;18.20;99.90
20750;DHT22;10535;50.664;4.564;2022-09-13T02:18:08;18.00;99.90
20750;DHT22;10535;50.664;4.564;2022-09-13T02:20:39;18.10;99.90
20750;DHT22;10535;50.664;4.564;2022-09-13T02:23:23;18.10;99.90
20750;DHT22;10535;50.664;4.564;2022-09-13T02:25:51;18.20;99.90
20750;DHT22;10535;50.664;4.564;2022-09-13T02:28:22;18.30;99.90
20750;DHT22;10535;50.664;4.564;2022-09-13T02:30:52;18.20;99.90
20750;DHT22;10535;50.664;4.564;2022-09-13T02:33:29;18.30;99.90
20750;DHT22;10535;50.664;4.564;2022-09-13T02:36:09;18.30;99.90
20750;DHT22;10535;50.664;4.564;2022-09-13T02:44:27;18.20;99.90
20750;DHT22;10535;50.664;4.564;2022-09-13T03:00:49;18.10;99.90
20750;DHT22;10535;50.664;4.564;2022-09-13T03:03:15;18.10;99.90
20750;DHT22;10535;50.664;4.564;2022-09-13T03:05:42;18.10;99.90
20750;DHT22;10535;50.664;4.564;2022-09-13T03:08:09;18.20;99.90
20750;DHT22;10535;50.664;4.564;2022-09-13T03:13:35;18.20;99.90
20750;DHT22;10535;50.664;4.564;2022-09-13T03:19:16;18.30;99.90
20750;DHT22;10535;50.664;4.564;2022-09-13T03:30:10;18.20;99.90
20750;DHT22;10535;50.664;4.564;2022-09-13T03:32:59;18.10;99.90
20750;DHT22;10535;50.664;4.564;2022-09-13T03:38:34;18.00;99.90
20750;DHT22;10535;50.664;4.564;2022-09-13T03:41:09;18.10;99.90
20750;DHT22;10535;50.664;4.564;2022-09-13T03:43:49;18.20;99.90
20750;DHT22;10535;50.664;4.564;2022-09-13T03:46:26;18.10;99.90
20750;DHT22;10535;50.664;4.564;2022-09-13T03:48:54;18.10;99.90
20750;DHT22;10535;50.664;4.564;2022-09-13T03:51:21;18.10;99.90
20750;DHT22;10535;50.664;4.564;2022-09-13T03:53:53;18.20;99.90
20750;DHT22;10535;50.664;4.564;2022-09-13T03:56:21;18.20;99.90
20750;DHT22;10535;50.664;4.564;2022-09-13T03:58:47;18.30;99.90
20750;DHT22;10535;50.664;4.564;2022-09-13T04:01:13;18.20;99.90
20750;DHT22;10535;50.664;4.564;2022-09-13T04:03:40;18.30;99.90
20750;DHT22;10535;50.664;4.564;2022-09-13T04:06:06;18.30;99.90
20750;DHT22;10535;50.664;4.564;2022-09-13T04:08:32;18.30;99.90
20750;DHT22;10535;50.664;4.564;2022-09-13T04:10:58;18.30;99.90
20750;DHT22;10535;50.664;4.564;2022-09-13T04:13:25;18.30;99.90
20750;DHT22;10535;50.664;4.564;2022-09-13T04:15:51;18.20;99.90
20750;DHT22;10535;50.664;4.564;2022-09-13T04:18:17;18.20;99.90
20750;DHT22;10535;50.664;4.564;2022-09-13T04:20:43;18.20;99.90
20750;DHT22;10535;50.664;4.564;2022-09-13T04:23:08;18.30;99.90
20750;DHT22;10535;50.664;4.564;2022-09-13T04:25:37;18.30;99.90
20750;DHT22;10535;50.664;4.564;2022-09-13T04:28:03;18.30;99.90
20750;DHT22;10535;50.664;4.564;2022-09-13T04:30:28;18.20;99.90
20750;DHT22;10535;50.664;4.564;2022-09-13T04:32:54;18.20;99.90
20750;DHT22;10535;50.664;4.564;2022-09-13T04:35:24;18.30;99.90
20750;DHT22;10535;50.664;4.564;2022-09-13T04:37:49;18.30;99.90
20750;DHT22;10535;50.664;4.564;2022-09-13T04:40:15;18.30;99.90
20750;DHT22;10535;50.664;4.564;2022-09-13T04:42:43;18.30;99.90
20750;DHT22;10535;50.664;4.564;2022-09-13T04:45:09;18.30;99.90
20750;DHT22;10535;50.664;4.564;2022-09-13T04:47:34;18.30;99.90
20750;DHT22;10535;50.664;4.564;2022-09-13T04:50:00;18.30;99.90
20750;DHT22;10535;50.664;4.564;2022-09-13T04:52:26;18.30;99.90
20750;DHT22;10535;50.664;4.564;2022-09-13T04:54:52;18.30;99.90
20750;DHT22;10535;50.664;4.564;2022-09-13T04:57:18;18.40;99.90
20750;DHT22;10535;50.664;4.564;2022-09-13T04:59:43;18.40;99.90
20750;DHT22;10535;50.664;4.564;2022-09-13T05:02:09;18.30;99.90
20750;DHT22;10535;50.664;4.564;2022-09-13T05:04:35;18.30;99.90
20750;DHT22;10535;50.664;4.564;2022-09-13T05:07:00;18.30;99.90
20750;DHT22;10535;50.664;4.564;2022-09-13T05:09:26;18.40;99.90
20750;DHT22;10535;50.664;4.564;2022-09-13T05:11:52;18.40;99.90
20750;DHT22;10535;50.664;4.564;2022-09-13T05:14:17;18.40;99.90
20750;DHT22;10535;50.664;4.564;2022-09-13T05:16:43;18.40;99.90
20750;DHT22;10535;50.664;4.564;2022-09-13T05:19:10;18.50;99.90
20750;DHT22;10535;50.664;4.564;2022-09-13T05:21:36;18.50;99.90
20750;DHT22;10535;50.664;4.564;2022-09-13T05:24:02;18.50;99.90
20750;DHT22;10535;50.664;4.564;2022-09-13T05:26:29;18.40;99.90
20750;DHT22;10535;50.664;4.564;2022-09-13T05:28:58;18.40;99.90
20750;DHT22;10535;50.664;4.564;2022-09-13T05:33:55;18.40;99.90
20750;DHT22;10535;50.664;4.564;2022-09-13T05:36:21;18.40;99.90
20750;DHT22;10535;50.664;4.564;2022-09-13T05:38:46;18.40;99.90
20750;DHT22;10535;50.664;4.564;2022-09-13T05:41:12;18.50;99.90
20750;DHT22;10535;50.664;4.564;2022-09-13T05:43:37;18.30;99.90
20750;DHT22;10535;50.664;4.564;2022-09-13T05:46:23;18.20;99.90
20750;DHT22;10535;50.664;4.564;2022-09-13T05:48:49;18.30;99.90
20750;DHT22;10535;50.664;4.564;2022-09-13T05:51:21;17.90;99.90
20750;DHT22;10535;50.664;4.564;2022-09-13T05:53:50;17.90;99.90
20750;DHT22;10535;50.664;4.564;2022-09-13T05:56:35;18.00;99.90
20750;DHT22;10535;50.664;4.564;2022-09-13T05:59:11;18.10;99.90
20750;DHT22;10535;50.664;4.564;2022-09-13T06:01:39;18.30;99.90
20750;DHT22;10535;50.664;4.564;2022-09-13T06:04:06;18.30;99.90
20750;DHT22;10535;50.664;4.564;2022-09-13T06:06:41;18.20;99.90
20750;DHT22;10535;50.664;4.564;2022-09-13T06:09:10;18.10;99.90
20750;DHT22;10535;50.664;4.564;2022-09-13T06:11:41;18.20;99.90
20750;DHT22;10535;50.664;4.564;2022-09-13T06:14:08;18.20;99.90
20750;DHT22;10535;50.664;4.564;2022-09-13T06:16:34;18.30;99.90
20750;DHT22;10535;50.664;4.564;2022-09-13T06:19:02;18.50;99.90
20750;DHT22;10535;50.664;4.564;2022-09-13T06:21:29;18.20;99.90
20750;DHT22;10535;50.664;4.564;2022-09-13T06:23:55;18.30;99.90
20750;DHT22;10535;50.664;4.564;2022-09-13T06:26:26;18.30;99.90
20750;DHT22;10535;50.664;4.564;2022-09-13T06:29:09;18.30;99.90
20750;DHT22;10535;50.664;4.564;2022-09-13T06:31:38;18.30;99.90
20750;DHT22;10535;50.664;4.564;2022-09-13T06:34:25;18.30;99.90
20750;DHT22;10535;50.664;4.564;2022-09-13T06:37:00;18.30;99.90
20750;DHT22;10535;50.664;4.564;2022-09-13T06:39:29;18.40;99.90
20750;DHT22;10535;50.664;4.564;2022-09-13T06:42:04;18.50;99.90
20750;DHT22;10535;50.664;4.564;2022-09-13T06:44:31;18.70;99.90
20750;DHT22;10535;50.664;4.564;2022-09-13T06:46:59;18.70;99.90
20750;DHT22;10535;50.664;4.564;2022-09-13T06:49:25;18.70;99.90
20750;DHT22;10535;50.664;4.564;2022-09-13T06:51:56;18.80;99.90
20750;DHT22;10535;50.664;4.564;2022-09-13T06:54:26;18.80;99.90
20750;DHT22;10535;50.664;4.564;2022-09-13T06:56:51;18.70;99.90
20750;DHT22;10535;50.664;4.564;2022-09-13T06:59:18;18.70;99.90
20750;DHT22;10535;50.664;4.564;2022-09-13T07:01:47;18.50;99.90
20750;DHT22;10535;50.664;4.564;2022-09-13T07:04:34;18.50;99.90
20750;DHT22;10535;50.664;4.564;2022-09-13T07:06:59;18.60;99.90
20750;DHT22;10535;50.664;4.564;2022-09-13T07:09:29;18.50;99.90
20750;DHT22;10535;50.664;4.564;2022-09-13T07:11:55;18.50;99.90
20750;DHT22;10535;50.664;4.564;2022-09-13T07:14:33;18.60;99.90
20750;DHT22;10535;50.664;4.564;2022-09-13T07:16:59;18.90;99.90
20750;DHT22;10535;50.664;4.564;2022-09-13T07:19:27;19.20;99.90
20750;DHT22;10535;50.664;4.564;2022-09-13T07:21:57;19.30;99.90
20750;DHT22;10535;50.664;4.564;2022-09-13T07:24:26;19.40;99.90
20750;DHT22;10535;50.664;4.564;2022-09-13T07:26:53;19.30;99.90
20750;DHT22;10535;50.664;4.564;2022-09-13T07:29:42;19.40;99.90
20750;DHT22;10535;50.664;4.564;2022-09-13T07:32:11;19.60;99.90
20750;DHT22;10535;50.664;4.564;2022-09-13T07:34:40;19.70;99.90
20750;DHT22;10535;50.664;4.564;2022-09-13T07:37:09;19.80;99.90
20750;DHT22;10535;50.664;4.564;2022-09-13T07:39:56;19.90;99.90
20750;DHT22;10535;50.664;4.564;2022-09-13T07:42:24;20.10;99.90
20750;DHT22;10535;50.664;4.564;2022-09-13T07:44:51;20.20;99.90
20750;DHT22;10535;50.664;4.564;2022-09-13T07:47:19;20.40;99.90
20750;DHT22;10535;50.664;4.564;2022-09-13T07:49:49;20.60;99.90
20750;DHT22;10535;50.664;4.564;2022-09-13T07:52:15;20.90;99.90
20750;DHT22;10535;50.664;4.564;2022-09-13T07:54:44;21.20;99.90
20750;DHT22;10535;50.664;4.564;2022-09-13T07:57:14;21.40;99.90
20750;DHT22;10535;50.664;4.564;2022-09-13T07:59:40;21.30;99.90
20750;DHT22;10535;50.664;4.564;2022-09-13T08:02:16;21.60;99.90
20750;DHT22;10535;50.664;4.564;2022-09-13T08:05:01;21.90;99.90
20750;DHT22;10535;50.664;4.564;2022-09-13T08:07:28;22.40;99.90
20750;DHT22;10535;50.664;4.564;2022-09-13T08:10:12;22.50;99.90
20750;DHT22;10535;50.664;4.564;2022-09-13T08:12:37;22.50;99.90
20750;DHT22;10535;50.664;4.564;2022-09-13T08:15:04;22.60;99.90
20750;DHT22;10535;50.664;4.564;2022-09-13T08:17:36;22.70;99.90
20750;DHT22;10535;50.664;4.564;2022-09-13T08:20:02;22.60;99.90
20750;DHT22;10535;50.664;4.564;2022-09-13T08:22:30;22.90;99.90
20750;DHT22;10535;50.664;4.564;2022-09-13T08:25:00;23.20;99.90
20750;DHT22;10535;50.664;4.564;2022-09-13T08:27:35;23.70;99.90
20750;DHT22;10535;50.664;4.564;2022-09-13T08:30:07;23.80;99.90
20750;DHT22;10535;50.664;4.564;2022-09-13T08:32:40;23.80;99.90
20750;DHT22;10535;50.664;4.564;2022-09-13T08:35:07;23.90;99.90
20750;DHT22;10535;50.664;4.564;2022-09-13T08:37:33;24.00;99.90
20750;DHT22;10535;50.664;4.564;2022-09-13T08:39:59;24.10;99.90
20750;DHT22;10535;50.664;4.564;2022-09-13T08:45:40;24.40;99.90
20750;DHT22;10535;50.664;4.564;2022-09-13T08:48:22;24.20;99.90
20750;DHT22;10535;50.664;4.564;2022-09-13T08:50:53;24.10;99.90
20750;DHT22;10535;50.664;4.564;2022-09-13T08:53:44;24.20;99.90
20750;DHT22;10535;50.664;4.564;2022-09-13T08:56:23;23.90;99.90
20750;DHT22;10535;50.664;4.564;2022-09-13T09:05:20;24.30;99.90
20750;DHT22;10535;50.664;4.564;2022-09-13T09:10:51;24.40;99.90
20750;DHT22;10535;50.664;4.564;2022-09-13T09:13:40;24.50;99.90
20750;DHT22;10535;50.664;4.564;2022-09-13T09:16:43;24.70;99.90
20750;DHT22;10535;50.664;4.564;2022-09-13T09:19:37;24.90;99.90
20750;DHT22;10535;50.664;4.564;2022-09-13T09:22:22;25.00;99.90
20750;DHT22;10535;50.664;4.564;2022-09-13T09:25:15;25.30;99.90
20750;DHT22;10535;50.664;4.564;2022-09-13T09:27:42;25.00;99.90
20750;DHT22;10535;50.664;4.564;2022-09-13T09:30:23;24.70;99.90
20750;DHT22;10535;50.664;4.564;2022-09-13T09:38:40;24.40;99.90
20750;DHT22;10535;50.664;4.564;2022-09-13T09:41:30;24.40;99.90
20750;DHT22;10535;50.664;4.564;2022-09-13T09:44:22;23.90;99.90
20750;DHT22;10535;50.664;4.564;2022-09-13T09:47:09;23.70;99.90
20750;DHT22;10535;50.664;4.564;2022-09-13T09:50:04;23.80;99.90
20750;DHT22;10535;50.664;4.564;2022-09-13T09:53:31;24.10;99.90
20750;DHT22;10535;50.664;4.564;2022-09-13T09:56:05;24.40;99.90
20750;DHT22;10535;50.664;4.564;2022-09-13T09:59:01;24.70;99.90
20750;DHT22;10535;50.664;4.564;2022-09-13T10:01:36;25.00;99.90
20750;DHT22;10535;50.664;4.564;2022-09-13T10:04:19;25.30;99.90
20750;DHT22;10535;50.664;4.564;2022-09-13T10:12:00;25.70;99.90
20750;DHT22;10535;50.664;4.564;2022-09-13T10:14:48;26.00;99.90
20750;DHT22;10535;50.664;4.564;2022-09-13T10:17:40;25.90;99.90
20750;DHT22;10535;50.664;4.564;2022-09-13T10:22:43;26.70;99.90
20750;DHT22;10535;50.664;4.564;2022-09-13T10:25:29;26.90;99.90
20750;DHT22;10535;50.664;4.564;2022-09-13T10:27:58;27.10;99.90
20750;DHT22;10535;50.664;4.564;2022-09-13T10:30:41;27.30;99.90
20750;DHT22;10535;50.664;4.564;2022-09-13T10:33:28;27.40;99.90
20750;DHT22;10535;50.664;4.564;2022-09-13T10:36:13;27.30;99.90
20750;DHT22;10535;50.664;4.564;2022-09-13T10:38:48;27.10;99.90
20750;DHT22;10535;50.664;4.564;2022-09-13T10:41:56;26.80;99.90
20750;DHT22;10535;50.664;4.564;2022-09-13T10:44:28;26.50;99.90
20750;DHT22;10535;50.664;4.564;2022-09-13T10:47:03;26.10;99.90
20750;DHT22;10535;50.664;4.564;2022-09-13T10:49:41;25.90;99.90
20750;DHT22;10535;50.664;4.564;2022-09-13T10:52:37;25.90;99.90
20750;DHT22;10535;50.664;4.564;2022-09-13T10:55:51;25.60;99.90
20750;DHT22;10535;50.664;4.564;2022-09-13T10:59:24;25.00;99.90
20750;DHT22;10535;50.664;4.564;2022-09-13T11:05:21;25.20;99.90
20750;DHT22;10535;50.664;4.564;2022-09-13T11:08:05;25.10;99.90
20750;DHT22;10535;50.664;4.564;2022-09-13T11:14:38;25.10;99.90
20750;DHT22;10535;50.664;4.564;2022-09-13T11:24:37;25.70;99.90
20750;DHT22;10535;50.664;4.564;2022-09-13T11:30:16;25.70;99.90
20750;DHT22;10535;50.664;4.564;2022-09-13T11:33:06;25.70;99.90
20750;DHT22;10535;50.664;4.564;2022-09-13T11:52:47;25.60;99.90
20750;DHT22;10535;50.664;4.564;2022-09-13T11:55:56;25.30;99.90
20750;DHT22;10535;50.664;4.564;2022-09-13T12:02:01;25.00;99.90
20750;DHT22;10535;50.664;4.564;2022-09-13T12:07:37;24.60;99.90
20750;DHT22;10535;50.664;4.564;2022-09-13T12:10:29;24.10;99.90
20750;DHT22;10535;50.664;4.564;2022-09-13T12:13:25;23.80;99.90
20750;DHT22;10535;50.664;4.564;2022-09-13T12:16:06;23.70;99.90
20750;DHT22;10535;50.664;4.564;2022-09-13T12:18:46;23.10;99.90
20750;DHT22;10535;50.664;4.564;2022-09-13T12:21:40;22.90;99.90
20750;DHT22;10535;50.664;4.564;2022-09-13T12:24:55;22.70;99.90
20750;DHT22;10535;50.664;4.564;2022-09-13T12:28:16;22.40;99.90
20750;DHT22;10535;50.664;4.564;2022-09-13T12:30:20;22.30;99.90
20750;DHT22;10535;50.664;4.564;2022-09-13T12:32:48;22.30;99.90
20750;DHT22;10535;50.664;4.564;2022-09-13T12:35:25;22.40;99.90
20750;DHT22;10535;50.664;4.564;2022-09-13T12:49:25;24.50;99.90
20750;DHT22;10535;50.664;4.564;2022-09-13T12:58:29;25.40;99.90
20750;DHT22;10535;50.664;4.564;2022-09-13T13:01:26;25.40;99.90
20750;DHT22;10535;50.664;4.564;2022-09-13T13:04:03;25.40;99.90
20750;DHT22;10535;50.664;4.564;2022-09-13T13:06:52;25.50;99.90
20750;DHT22;10535;50.664;4.564;2022-09-13T13:09:53;25.50;99.90
20750;DHT22;10535;50.664;4.564;2022-09-13T13:12:42;25.40;99.90
20750;DHT22;10535;50.664;4.564;2022-09-13T13:17:55;25.30;99.90
20750;DHT22;10535;50.664;4.564;2022-09-13T13:23:42;25.20;99.90
20750;DHT22;10535;50.664;4.564;2022-09-13T13:26:12;25.20;99.90
20750;DHT22;10535;50.664;4.564;2022-09-13T13:34:47;25.10;99.90
20750;DHT22;10535;50.664;4.564;2022-09-13T13:37:27;25.00;99.90
20750;DHT22;10535;50.664;4.564;2022-09-13T13:40:23;25.00;99.90
20750;DHT22;10535;50.664;4.564;2022-09-13T13:43:14;25.10;99.90
20750;DHT22;10535;50.664;4.564;2022-09-13T13:48:48;25.00;99.90
20750;DHT22;10535;50.664;4.564;2022-09-13T13:51:20;25.00;99.90
20750;DHT22;10535;50.664;4.564;2022-09-13T13:54:28;25.00;99.90
20750;DHT22;10535;50.664;4.564;2022-09-13T13:56:59;24.90;99.90
20750;DHT22;10535;50.664;4.564;2022-09-13T13:59:31;24.80;99.90
20750;DHT22;10535;50.664;4.564;2022-09-13T14:02:04;24.60;99.90
20750;DHT22;10535;50.664;4.564;2022-09-13T14:04:59;24.60;99.90
20750;DHT22;10535;50.664;4.564;2022-09-13T14:25:12;24.00;99.90
20750;DHT22;10535;50.664;4.564;2022-09-13T14:27:46;23.60;99.90
20750;DHT22;10535;50.664;4.564;2022-09-13T14:30:30;23.00;99.90
20750;DHT22;10535;50.664;4.564;2022-09-13T14:32:57;22.50;99.90
20750;DHT22;10535;50.664;4.564;2022-09-13T14:36:05;22.30;99.90
20750;DHT22;10535;50.664;4.564;2022-09-13T14:39:00;22.10;99.90
20750;DHT22;10535;50.664;4.564;2022-09-13T14:41:35;22.00;99.90
20750;DHT22;10535;50.664;4.564;2022-09-13T14:44:23;22.10;99.90
20750;DHT22;10535;50.664;4.564;2022-09-13T14:47:29;22.30;99.90
20750;DHT22;10535;50.664;4.564;2022-09-13T14:50:30;22.60;99.90
20750;DHT22;10535;50.664;4.564;2022-09-13T14:53:26;22.90;99.90
20750;DHT22;10535;50.664;4.564;2022-09-13T14:56:17;23.20;99.90
20750;DHT22;10535;50.664;4.564;2022-09-13T14:58:44;23.20;99.90
20750;DHT22;10535;50.664;4.564;2022-09-13T15:01:21;23.00;99.90
20750;DHT22;10535;50.664;4.564;2022-09-13T15:03:59;22.90;99.90
20750;DHT22;10535;50.664;4.564;2022-09-13T15:06:37;22.90;99.90
20750;DHT22;10535;50.664;4.564;2022-09-13T15:14:31;23.10;99.90
20750;DHT22;10535;50.664;4.564;2022-09-13T15:17:19;23.20;99.90
20750;DHT22;10535;50.664;4.564;2022-09-13T15:19:49;23.40;99.90
20750;DHT22;10535;50.664;4.564;2022-09-13T15:22:24;23.60;99.90
20750;DHT22;10535;50.664;4.564;2022-09-13T15:24:58;23.80;99.90
20750;DHT22;10535;50.664;4.564;2022-09-13T15:27:28;23.90;99.90
20750;DHT22;10535;50.664;4.564;2022-09-13T15:30:37;23.90;99.90
20750;DHT22;10535;50.664;4.564;2022-09-13T15:35:47;23.80;99.90
20750;DHT22;10535;50.664;4.564;2022-09-13T15:38:54;23.80;99.90
20750;DHT22;10535;50.664;4.564;2022-09-13T15:41:19;23.80;99.90
20750;DHT22;10535;50.664;4.564;2022-09-13T15:43:51;23.80;99.90
20750;DHT22;10535;50.664;4.564;2022-09-13T15:46:19;23.80;99.90
20750;DHT22;10535;50.664;4.564;2022-09-13T15:49:14;23.80;99.90
20750;DHT22;10535;50.664;4.564;2022-09-13T15:51:42;23.80;99.90
20750;DHT22;10535;50.664;4.564;2022-09-13T15:54:40;23.80;99.90
20750;DHT22;10535;50.664;4.564;2022-09-13T15:57:16;23.80;99.90
20750;DHT22;10535;50.664;4.564;2022-09-13T15:59:52;23.70;99.90
20750;DHT22;10535;50.664;4.564;2022-09-13T16:02:27;23.70;99.90
20750;DHT22;10535;50.664;4.564;2022-09-13T16:05:00;23.50;99.90
20750;DHT22;10535;50.664;4.564;2022-09-13T16:07:28;23.40;99.90
20750;DHT22;10535;50.664;4.564;2022-09-13T16:09:58;23.40;99.90
20750;DHT22;10535;50.664;4.564;2022-09-13T16:12:24;23.10;99.90
20750;DHT22;10535;50.664;4.564;2022-09-13T16:15:06;23.10;99.90
20750;DHT22;10535;50.664;4.564;2022-09-13T16:17:33;22.90;99.90
20750;DHT22;10535;50.664;4.564;2022-09-13T16:20:19;22.90;99.90
20750;DHT22;10535;50.664;4.564;2022-09-13T16:22:48;22.70;99.90
20750;DHT22;10535;50.664;4.564;2022-09-13T16:25:16;22.50;99.90
20750;DHT22;10535;50.664;4.564;2022-09-13T16:27:42;22.40;99.90
20750;DHT22;10535;50.664;4.564;2022-09-13T16:30:19;22.40;99.90
20750;DHT22;10535;50.664;4.564;2022-09-13T16:33:05;22.30;99.90
20750;DHT22;10535;50.664;4.564;2022-09-13T16:35:39;22.10;99.90
20750;DHT22;10535;50.664;4.564;2022-09-13T16:38:06;22.30;99.90
20750;DHT22;10535;50.664;4.564;2022-09-13T16:40:38;22.00;99.90
20750;DHT22;10535;50.664;4.564;2022-09-13T16:43:32;21.80;99.90
20750;DHT22;10535;50.664;4.564;2022-09-13T16:46:21;21.50;99.90
20750;DHT22;10535;50.664;4.564;2022-09-13T16:49:40;21.20;99.90
20750;DHT22;10535;50.664;4.564;2022-09-13T16:52:21;21.10;99.90
20750;DHT22;10535;50.664;4.564;2022-09-13T16:54:46;21.10;99.90
20750;DHT22;10535;50.664;4.564;2022-09-13T16:57:17;21.00;99.90
20750;DHT22;10535;50.664;4.564;2022-09-13T16:59:42;21.10;99.90
20750;DHT22;10535;50.664;4.564;2022-09-13T17:02:11;21.10;99.90
20750;DHT22;10535;50.664;4.564;2022-09-13T17:04:40;21.10;99.90
20750;DHT22;10535;50.664;4.564;2022-09-13T17:07:06;21.10;99.90
20750;DHT22;10535;50.664;4.564;2022-09-13T17:09:33;21.20;99.90
20750;DHT22;10535;50.664;4.564;2022-09-13T17:12:07;21.20;99.90
20750;DHT22;10535;50.664;4.564;2022-09-13T17:14:34;21.10;99.90
20750;DHT22;10535;50.664;4.564;2022-09-13T17:16:59;21.20;99.90
20750;DHT22;10535;50.664;4.564;2022-09-13T17:19:28;21.20;99.90
20750;DHT22;10535;50.664;4.564;2022-09-13T17:21:56;21.00;99.90
20750;DHT22;10535;50.664;4.564;2022-09-13T17:24:26;21.00;99.90
20750;DHT22;10535;50.664;4.564;2022-09-13T17:26:53;20.90;99.90
20750;DHT22;10535;50.664;4.564;2022-09-13T17:29:20;20.90;99.90
20750;DHT22;10535;50.664;4.564;2022-09-13T17:31:46;20.80;99.90
20750;DHT22;10535;50.664;4.564;2022-09-13T17:34:13;20.70;99.90
20750;DHT22;10535;50.664;4.564;2022-09-13T17:36:44;20.70;99.90
20750;DHT22;10535;50.664;4.564;2022-09-13T17:39:18;20.40;99.90
20750;DHT22;10535;50.664;4.564;2022-09-13T17:41:59;20.30;99.90
20750;DHT22;10535;50.664;4.564;2022-09-13T17:44:30;20.20;99.90
20750;DHT22;10535;50.664;4.564;2022-09-13T17:46:56;20.10;99.90
20750;DHT22;10535;50.664;4.564;2022-09-13T17:49:21;20.20;99.90
20750;DHT22;10535;50.664;4.564;2022-09-13T17:51:47;20.10;99.90
20750;DHT22;10535;50.664;4.564;2022-09-13T17:54:12;20.10;99.90
20750;DHT22;10535;50.664;4.564;2022-09-13T17:56:41;20.10;99.90
20750;DHT22;10535;50.664;4.564;2022-09-13T17:59:14;20.00;99.90
20750;DHT22;10535;50.664;4.564;2022-09-13T18:01:51;19.70;99.90
20750;DHT22;10535;50.664;4.564;2022-09-13T18:04:43;19.50;99.90
20750;DHT22;10535;50.664;4.564;2022-09-13T18:07:22;19.30;99.90
20750;DHT22;10535;50.664;4.564;2022-09-13T18:09:50;19.20;99.90
20750;DHT22;10535;50.664;4.564;2022-09-13T18:12:24;19.30;99.90
20750;DHT22;10535;50.664;4.564;2022-09-13T18:14:51;19.40;99.90
20750;DHT22;10535;50.664;4.564;2022-09-13T18:17:37;19.50;99.90
20750;DHT22;10535;50.664;4.564;2022-09-13T18:20:06;19.50;99.90
20750;DHT22;10535;50.664;4.564;2022-09-13T18:22:33;19.60;99.90
20750;DHT22;10535;50.664;4.564;2022-09-13T18:25:00;19.60;99.90
20750;DHT22;10535;50.664;4.564;2022-09-13T18:27:26;19.50;99.90
20750;DHT22;10535;50.664;4.564;2022-09-13T18:29:54;19.50;99.90
20750;DHT22;10535;50.664;4.564;2022-09-13T18:32:21;19.50;99.90
20750;DHT22;10535;50.664;4.564;2022-09-13T18:34:47;19.50;99.90
20750;DHT22;10535;50.664;4.564;2022-09-13T18:37:12;19.50;99.90
20750;DHT22;10535;50.664;4.564;2022-09-13T18:39:44;19.40;99.90
20750;DHT22;10535;50.664;4.564;2022-09-13T18:42:10;19.40;99.90
20750;DHT22;10535;50.664;4.564;2022-09-13T18:44:36;19.50;99.90
20750;DHT22;10535;50.664;4.564;2022-09-13T18:47:02;19.60;99.90
20750;DHT22;10535;50.664;4.564;2022-09-13T18:49:29;19.60;99.90
20750;DHT22;10535;50.664;4.564;2022-09-13T18:51:55;19.60;99.90
20750;DHT22;10535;50.664;4.564;2022-09-13T18:54:20;19.60;99.90
20750;DHT22;10535;50.664;4.564;2022-09-13T18:56:47;19.70;99.90
20750;DHT22;10535;50.664;4.564;2022-09-13T18:59:14;19.70;99.90
20750;DHT22;10535;50.664;4.564;2022-09-13T19:01:41;19.60;99.90
20750;DHT22;10535;50.664;4.564;2022-09-13T19:04:13;19.70;99.90
20750;DHT22;10535;50.664;4.564;2022-09-13T19:06:49;19.60;99.90
20750;DHT22;10535;50.664;4.564;2022-09-13T19:09:16;19.60;99.90
20750;DHT22;10535;50.664;4.564;2022-09-13T19:11:46;19.50;99.90
20750;DHT22;10535;50.664;4.564;2022-09-13T19:14:22;19.70;99.90
20750;DHT22;10535;50.664;4.564;2022-09-13T19:16:54;19.70;99.90
20750;DHT22;10535;50.664;4.564;2022-09-13T19:19:26;19.80;99.90
20750;DHT22;10535;50.664;4.564;2022-09-13T19:22:06;19.70;99.90
20750;DHT22;10535;50.664;4.564;2022-09-13T19:24:58;19.50;99.90
20750;DHT22;10535;50.664;4.564;2022-09-13T19:28:11;19.30;99.90
20750;DHT22;10535;50.664;4.564;2022-09-13T19:30:37;19.20;99.90